KLAS

Mc Carran International Airport

Las Vegas, Nevada, USA
METAR KLAS 141256Z 21006KT 10SM FEW200 30/09 A2983 RMK AO2 SLP066 T03000094
Observed Flight Rules
Aug-14 @ 12:56 UTC (46 minutes ago) Visual Flight Rules
Wind Visibility Clouds
210° at 6 knots 10 miles
  • Few at 20,000' AGL
Temperatures Readings
Current 30°C / 86°F
Dewpoint 9°C / 48°F
Humidity 27%
Altimeter 29.83" Hg
Pressure 1006.6 hPa
Elevation 636
METAR KLAS 141256Z 21006KT 10SM FEW200 30/09 A2983 RMK AO2 SLP066 T03000094
Observed Flight Rules
Aug-14 @ 12:56 UTC
(46 minutes ago)
VFR
Wind Visibility
210° at 6 knots 10 miles
Clouds
  • Few at 20,000' AGL
Temperature Dewpoint
30°C / 86°F 9°C / 48°F
Humidity Altimeter Pressure
27% 29.83" Hg 1006.6 hPa